Reno, Pennsylvania
Current Conditions -  °F | °C
As of 5:35 AM on Friday 24 Oct 2014 (Local Time) from KFKL Reporting Station
Overcast Overcast  
Wind Chill:   Ceiling: 200
Heat Index:   Visibility: 0.5mi
Dew Point:   Wind: 3mph
Humidity: 87%   Direction: 340°NNW
Pressure: 30.08"   Gusts: NA
Location:  41.41°N, 79.75°W
Report Text: KFKL 240935Z 34003KT 1/2SM OVC002 06/04 A3008 RMK AO1
Loading
Personal Weather Stations






























Interactive Weather Map
Tropical Storm Tracking
New forecast layout! Learn more

10-Day Weather Forecast

Advertisements
Track Severe Weather on mobile